• Join FlightAware (Why Join?)
  • Login
  • US Flag GB Flag 
12:12 EDT


 

Airport Tracker/Info


-or-


 

Live Flight TrackerFlight Track Log ✈ N913CS ✈ 28-Aug-2014 ✈ KMLI - KCID

Flight Track Log - Related Links

Times and Time Zones

All times are in EDT time to prevent confusion due to time zone crossing. See the N913CS flight status page for this flight to view local times or setup timezone preferences in your user account.

Time Position Orientation Groundspeed Altitude Reporting Facility
EDT Latitude Longitude Course Direction KTS MPH feet Rate Location/Type
19:01 41.4733 -90.3106 293° West 266 306 4,500  Level Chicago Center
19:02 41.5333 -90.3556 331° Northwest 274 315 5,000 240 Climbing Chicago Center
19:03 41.5556 -90.4536 287° West 274 315 5,000 1,080 Level Chicago Center
19:04 41.5817 -90.5458 291° West 272 313 7,300 1,440 Climbing Chicago Center
19:05 41.6233 -90.9840 296° West  Level Estimated
19:05 41.6075 -90.6414 290° West 272 313 8,000  Level Chicago Center
19:06 41.6496 -91.0654 293° West  Level FlightAware Approximate
19:06 41.6353 -90.7603 287° West 288 331 8,100  Level Chicago Center
19:07 41.6597 -90.8586 288° West 280 322 8,100 -60 Level Chicago Center
19:08 41.6847 -90.9556 289° West 279 321 8,000 -420 Descending Chicago Center
19:09 41.7081 -91.0547 288° West 279 321 7,300 -720 Descending Chicago Center
19:10 41.7319 -91.1494 289° West 275 316 6,500 -600 Descending Chicago Center
19:11 41.7558 -91.2458 288° West 275 316 6,100 -300 Descending Chicago Center
19:12 41.7836 -91.3586 288° West 272 313 5,900 -600 Descending Chicago Center
19:13 41.7903 -91.4558 275° West 265 305 4,900 -600 Descending Chicago Center
19:14 41.7942 -91.5553 273° West 266 306 4,700 -1,080 Descending Chicago Center
19:15 41.7992 -91.6628 274° West 199 229 2,700 -1,140 Descending Chicago Center
19:16 41.8086 -91.7650 277° West 275 316 2,400 -300 Descending Chicago Center
19:17 41.8292 -91.8389 290° West 245 282 2,100 -240 Descending Chicago Center
19:18 41.8894 -91.8364 North 224 258 2,000 -120 Descending Chicago Center
19:20 41.8833 -91.7000 312° West  Level FlightAware Approximate
19:27 41.8847 -91.7108 312° West  Level Estimated